createdAt,value
2018-10-19T00:00:17.460Z,118.05
2018-10-19T00:02:44.668Z,104.27
2018-10-19T00:05:12.005Z,103.13
2018-10-19T00:07:39.160Z,94.83
2018-10-19T00:10:07.463Z,114.23
2018-10-19T00:12:34.749Z,126.15
2018-10-19T00:15:02.060Z,110.50
2018-10-19T00:17:29.322Z,97.82
2018-10-19T00:19:56.552Z,95.63
2018-10-19T00:22:23.765Z,110.83
2018-10-19T00:24:50.990Z,117.57
2018-10-19T00:27:18.242Z,138.32
2018-10-19T00:29:45.497Z,160.88
2018-10-19T00:32:12.749Z,145.50
2018-10-19T00:34:39.992Z,130.78
2018-10-19T00:37:07.212Z,130.03
2018-10-19T00:39:34.432Z,141.25
2018-10-19T00:42:01.682Z,122.60
2018-10-19T00:44:28.917Z,116.82
2018-10-19T00:46:56.185Z,115.80
2018-10-19T00:49:23.384Z,129.53
2018-10-19T00:51:50.609Z,118.30
2018-10-19T00:54:17.846Z,136.65
2018-10-19T00:56:45.076Z,119.25
2018-10-19T00:59:12.414Z,137.80
2018-10-19T01:01:39.548Z,134.87
2018-10-19T01:04:06.909Z,158.07
2018-10-19T01:06:34.146Z,140.83
2018-10-19T01:09:01.472Z,142.57
2018-10-19T01:11:28.643Z,126.07
2018-10-19T01:13:55.880Z,135.85
2018-10-19T01:16:23.115Z,120.62
2018-10-19T01:18:50.364Z,112.85
2018-10-19T01:21:17.613Z,113.10
2018-10-19T01:23:44.843Z,106.07
2018-10-19T01:26:12.085Z,107.13
2018-10-19T01:28:39.324Z,90.90
2018-10-19T01:31:07.576Z,103.83
2018-10-19T01:33:34.878Z,116.22
2018-10-19T01:36:02.093Z,110.10
2018-10-19T01:38:29.294Z,108.52
2018-10-19T01:40:56.555Z,94.70
2018-10-19T01:43:24.912Z,108.70
2018-10-19T01:45:56.837Z,108.80
2018-10-19T01:48:24.729Z,118.65
2018-10-19T01:50:52.030Z,127.90
2018-10-19T01:53:19.389Z,137.07
2018-10-19T01:55:46.748Z,131.40
2018-10-19T01:58:14.352Z,135.48
2018-10-19T02:00:41.592Z,119.97
2018-10-19T02:03:09.060Z,141.50
2018-10-19T02:05:36.617Z,111.25
2018-10-19T02:08:04.157Z,118.90
2018-10-19T02:10:31.407Z,128.30
2018-10-19T02:12:58.637Z,125.82
2018-10-19T02:15:26.852Z,117.50
2018-10-19T02:17:54.076Z,130.80
2018-10-19T02:20:21.301Z,110.90
2018-10-19T02:22:48.532Z,118.08
2018-10-19T02:25:15.764Z,147.22
2018-10-19T02:27:44.053Z,116.00
2018-10-19T02:30:11.276Z,115.35
2018-10-19T02:32:38.506Z,119.82
2018-10-19T02:35:05.822Z,116.12
2018-10-19T02:37:33.152Z,102.60
2018-10-19T02:40:00.369Z,92.80
2018-10-19T02:42:27.626Z,97.50
2018-10-19T02:44:54.869Z,92.50
2018-10-19T02:47:22.093Z,92.90
2018-10-19T02:49:49.392Z,100.30
2018-10-19T02:52:16.640Z,83.58
2018-10-19T02:54:43.872Z,100.40
2018-10-19T02:57:11.149Z,94.70
2018-10-19T02:59:38.345Z,106.05
2018-10-19T03:02:05.782Z,97.85
2018-10-19T03:04:33.099Z,242.45
2018-10-19T03:07:00.325Z,108.30
2018-10-19T03:09:27.549Z,102.17
2018-10-19T03:11:54.770Z,97.50
2018-10-19T03:14:21.988Z,104.50
2018-10-19T03:16:49.206Z,115.17
2018-10-19T03:19:16.452Z,116.35
2018-10-19T03:21:43.922Z,133.22
2018-10-19T03:24:12.163Z,120.28
2018-10-19T03:26:39.384Z,117.77
2018-10-19T03:29:06.680Z,101.02
2018-10-19T03:31:33.841Z,81.45
2018-10-19T03:34:01.069Z,100.70
2018-10-19T03:36:28.296Z,96.08
2018-10-19T03:38:55.557Z,87.80
2018-10-19T03:41:22.788Z,86.75
2018-10-19T03:43:50.167Z,78.40
2018-10-19T03:46:17.408Z,79.22
2018-10-19T03:48:45.530Z,95.90
2018-10-19T03:51:12.828Z,86.70
2018-10-19T03:53:40.035Z,97.33
2018-10-19T03:56:07.294Z,95.03
2018-10-19T03:58:34.517Z,116.20
2018-10-19T04:01:01.743Z,85.87
2018-10-19T04:03:29.048Z,84.42
2018-10-19T04:05:57.213Z,106.22
2018-10-19T04:08:24.433Z,121.47
2018-10-19T04:10:51.662Z,86.78
2018-10-19T04:13:19.900Z,88.60
2018-10-19T04:15:48.113Z,87.35
2018-10-19T04:18:15.365Z,89.22
2018-10-19T04:20:42.592Z,88.05
2018-10-19T04:23:09.884Z,98.12
2018-10-19T04:25:37.994Z,104.20
2018-10-19T04:28:05.316Z,185.18
2018-10-19T04:30:32.908Z,204.32
2018-10-19T04:33:00.623Z,316.98
2018-10-19T04:35:28.032Z,761.02
2018-10-19T04:37:55.261Z,877.95
2018-10-19T04:40:22.945Z,738.67
2018-10-19T04:42:50.302Z,377.85
2018-10-19T04:45:20.778Z,718.15
2018-10-19T04:47:48.053Z,386.32
2018-10-19T04:50:15.441Z,579.70
2018-10-19T04:52:42.688Z,532.12
2018-10-19T04:55:14.021Z,414.95
2018-10-19T04:57:41.261Z,600.58
2018-10-19T05:00:08.548Z,429.57
2018-10-19T05:02:36.143Z,609.10
2018-10-19T05:05:04.090Z,631.92
2018-10-19T05:07:31.515Z,610.78
2018-10-19T05:09:58.724Z,714.32
2018-10-19T05:12:26.045Z,371.07
2018-10-19T05:14:53.201Z,294.80
2018-10-19T05:17:20.436Z,290.00
2018-10-19T05:19:47.724Z,161.05
2018-10-19T05:22:14.997Z,190.82
2018-10-19T05:24:42.307Z,489.60
2018-10-19T05:27:09.967Z,142.18
2018-10-19T05:29:37.237Z,273.95
2018-10-19T05:32:04.550Z,123.20
2018-10-19T05:34:31.732Z,284.02
2018-10-19T05:36:58.940Z,285.13
2018-10-19T05:39:26.169Z,248.60
2018-10-19T05:41:53.404Z,280.98
2018-10-19T05:44:20.613Z,227.38
2018-10-19T05:46:47.832Z,66.80
2018-10-19T05:49:15.044Z,60.70
2018-10-19T05:51:42.301Z,83.17
2018-10-19T05:54:09.533Z,73.62
2018-10-19T05:56:36.765Z,410.25
2018-10-19T05:59:04.293Z,284.18
2018-10-19T06:01:31.488Z,292.43
2018-10-19T06:03:58.734Z,164.07
2018-10-19T06:06:25.948Z,139.57
2018-10-19T06:08:53.177Z,452.93
2018-10-19T06:11:20.532Z,310.48
2018-10-19T06:13:47.801Z,249.67
2018-10-19T06:16:14.992Z,326.42
2018-10-19T06:18:42.204Z,312.98
2018-10-19T06:21:09.609Z,154.97
2018-10-19T06:23:36.776Z,219.07
2018-10-19T06:26:04.476Z,205.90
2018-10-19T06:28:31.795Z,159.65
2018-10-19T06:30:59.048Z,229.50
2018-10-19T06:33:26.268Z,236.05
2018-10-19T06:35:53.495Z,732.05
2018-10-19T06:38:20.745Z,499.60
2018-10-19T06:40:48.045Z,726.63
2018-10-19T06:43:15.207Z,518.63
2018-10-19T06:45:42.412Z,606.87
2018-10-19T06:48:09.641Z,425.90
2018-10-19T06:50:36.864Z,503.88
2018-10-19T06:53:04.181Z,423.93
2018-10-19T06:55:31.355Z,427.90
2018-10-19T06:57:58.573Z,398.15
2018-10-19T07:00:25.788Z,568.58
2018-10-19T07:02:53.056Z,166.62
2018-10-19T07:05:20.308Z,228.50
2018-10-19T07:07:47.548Z,202.20
2018-10-19T07:10:14.789Z,384.32
2018-10-19T07:12:42.013Z,469.05
2018-10-19T07:15:10.717Z,257.20
2018-10-19T07:17:38.164Z,169.10
2018-10-19T07:20:06.373Z,123.30
2018-10-19T07:22:33.577Z,125.53
2018-10-19T07:25:00.962Z,126.17
2018-10-19T07:27:28.186Z,124.10
2018-10-19T07:29:55.415Z,84.77
2018-10-19T07:32:22.636Z,80.33
2018-10-19T07:34:49.882Z,118.07
2018-10-19T07:37:17.113Z,107.33
2018-10-19T07:39:44.324Z,69.73
2018-10-19T07:42:11.643Z,83.63
2018-10-19T07:44:38.795Z,65.03
2018-10-19T07:47:06.040Z,61.90
2018-10-19T07:49:33.257Z,60.00
2018-10-19T07:52:00.485Z,59.90
2018-10-19T07:54:27.848Z,55.40
2018-10-19T07:56:55.029Z,47.70
2018-10-19T07:59:22.262Z,57.50
2018-10-19T08:01:49.480Z,57.47
2018-10-19T08:04:16.706Z,52.83
2018-10-19T08:06:43.933Z,56.50
2018-10-19T08:09:11.396Z,58.20
2018-10-19T08:11:38.723Z,54.37
2018-10-19T08:14:06.136Z,54.90
2018-10-19T08:16:33.331Z,50.53
2018-10-19T08:19:00.553Z,49.53
2018-10-19T08:21:28.140Z,50.57
2018-10-19T08:23:55.377Z,55.27
2018-10-19T08:26:22.771Z,54.00
2018-10-19T08:28:50.018Z,53.70
2018-10-19T08:31:17.245Z,56.50
2018-10-19T08:33:44.477Z,50.27
2018-10-19T08:36:11.703Z,58.73
2018-10-19T08:38:38.922Z,49.40
2018-10-19T08:41:06.259Z,50.03
2018-10-19T08:43:33.398Z,56.53
2018-10-19T08:46:06.254Z,49.90
2018-10-19T08:48:33.471Z,51.33
2018-10-19T08:51:00.736Z,54.67
2018-10-19T08:53:27.994Z,60.33
2018-10-19T08:55:55.230Z,57.90
2018-10-19T08:58:22.492Z,55.30
2018-10-19T09:00:49.669Z,52.67
2018-10-19T09:03:16.965Z,51.67
2018-10-19T09:05:44.103Z,49.40
2018-10-19T09:08:11.316Z,57.43
2018-10-19T09:10:38.571Z,50.53
2018-10-19T09:13:06.010Z,51.13
2018-10-19T09:15:33.229Z,51.30
2018-10-19T09:18:00.448Z,46.90
2018-10-19T09:20:27.674Z,56.57
2018-10-19T09:22:54.921Z,50.80
2018-10-19T09:25:22.125Z,47.50
2018-10-19T09:27:49.358Z,50.63
2018-10-19T09:30:16.574Z,55.37
2018-10-19T09:32:43.805Z,48.20
2018-10-19T09:35:11.105Z,45.47
2018-10-19T09:37:38.346Z,44.63
2018-10-19T09:40:05.800Z,45.70
2018-10-19T09:42:33.008Z,45.90
2018-10-19T09:45:00.259Z,52.80
2018-10-19T09:47:27.555Z,50.10
2018-10-19T09:49:54.736Z,48.67
2018-10-19T09:52:21.992Z,45.57
2018-10-19T09:54:49.232Z,45.40
2018-10-19T09:57:16.585Z,50.00
2018-10-19T09:59:43.722Z,45.20
2018-10-19T10:02:11.002Z,46.50
2018-10-19T10:04:38.181Z,45.87
2018-10-19T10:07:05.471Z,46.00
2018-10-19T10:09:32.644Z,48.43
2018-10-19T10:11:59.871Z,48.07
2018-10-19T10:14:27.086Z,46.00
2018-10-19T10:16:54.345Z,51.57
2018-10-19T10:19:21.573Z,49.13
2018-10-19T10:21:49.105Z,44.83
2018-10-19T10:24:16.376Z,43.90
2018-10-19T10:26:43.630Z,48.90
2018-10-19T10:29:10.951Z,46.97
2018-10-19T10:31:38.209Z,46.70
2018-10-19T10:34:05.488Z,43.17
2018-10-19T10:36:33.326Z,46.30
2018-10-19T10:39:00.743Z,45.83
2018-10-19T10:41:27.912Z,45.80
2018-10-19T10:43:56.116Z,48.80
2018-10-19T10:46:23.368Z,45.63
2018-10-19T10:48:50.576Z,44.20
2018-10-19T10:51:17.998Z,45.77
2018-10-19T10:53:45.215Z,49.70
2018-10-19T10:56:12.457Z,44.93
2018-10-19T10:58:40.040Z,43.37
2018-10-19T11:01:07.334Z,50.73
2018-10-19T11:03:34.702Z,46.40
2018-10-19T11:06:02.444Z,47.23
2018-10-19T11:08:29.663Z,46.93
2018-10-19T11:11:04.729Z,50.70
2018-10-19T11:13:31.952Z,47.50
2018-10-19T11:15:59.171Z,51.03
2018-10-19T11:18:26.397Z,49.70
2018-10-19T11:20:53.631Z,44.37
2018-10-19T11:23:20.848Z,55.07
2018-10-19T11:25:48.065Z,48.80
2018-10-19T11:28:15.346Z,60.33
2018-10-19T11:30:42.552Z,50.20
2018-10-19T11:33:09.761Z,55.53
2018-10-19T11:35:36.972Z,54.40
2018-10-19T11:38:04.694Z,53.00
2018-10-19T11:40:35.083Z,49.33
2018-10-19T11:43:02.395Z,60.10
2018-10-19T11:45:31.529Z,54.90
2018-10-19T11:47:58.756Z,47.47
2018-10-19T11:50:25.992Z,50.50
2018-10-19T11:52:53.216Z,48.53
2018-10-19T11:55:20.472Z,49.43
2018-10-19T11:57:48.500Z,51.80
2018-10-19T12:00:15.993Z,46.87
2018-10-19T12:02:43.316Z,45.30
2018-10-19T12:05:10.572Z,47.80
2018-10-19T12:07:38.238Z,47.77
2018-10-19T12:10:06.569Z,44.30
2018-10-19T12:12:33.752Z,45.70
2018-10-19T12:15:01.012Z,48.83
2018-10-19T12:17:28.235Z,45.07
2018-10-19T12:19:55.453Z,43.40
2018-10-19T12:22:22.668Z,40.80
2018-10-19T12:24:49.920Z,38.77
2018-10-19T12:27:17.248Z,36.97
2018-10-19T12:29:44.469Z,36.57
2018-10-19T12:32:12.703Z,39.80
2018-10-19T12:34:39.934Z,39.13
2018-10-19T12:37:08.536Z,43.73
2018-10-19T12:39:35.896Z,37.77
2018-10-19T12:42:03.127Z,36.93
2018-10-19T12:44:30.477Z,38.23
2018-10-19T12:47:09.252Z,39.20
2018-10-19T12:49:36.884Z,43.10
2018-10-19T12:52:04.284Z,41.07
2018-10-19T12:54:31.595Z,41.07
2018-10-19T12:56:58.841Z,37.90
2018-10-19T12:59:26.161Z,42.03
2018-10-19T13:01:53.376Z,43.17
2018-10-19T13:04:20.600Z,40.83
2018-10-19T13:06:47.820Z,42.37
2018-10-19T13:09:15.196Z,40.03
2018-10-19T13:11:42.272Z,42.80
2018-10-19T13:14:09.597Z,41.47
2018-10-19T13:16:36.840Z,44.63
2018-10-19T13:19:04.312Z,45.10
2018-10-19T13:21:31.492Z,41.83
2018-10-19T13:23:58.775Z,44.57
2018-10-19T13:26:27.005Z,44.20
2018-10-19T13:28:54.247Z,46.73
2018-10-19T13:31:22.511Z,50.07
2018-10-19T13:33:50.171Z,45.97
2018-10-19T13:36:17.388Z,49.53
2018-10-19T13:38:44.629Z,50.30
2018-10-19T13:41:11.852Z,49.90
2018-10-19T13:43:39.802Z,53.23
2018-10-19T13:46:07.013Z,52.80
2018-10-19T13:48:34.303Z,53.73
2018-10-19T13:51:01.565Z,53.47
2018-10-19T13:53:28.768Z,51.40
2018-10-19T13:55:56.015Z,51.67
2018-10-19T13:58:23.288Z,50.70
2018-10-19T14:00:50.497Z,52.83
2018-10-19T14:03:17.720Z,50.33
2018-10-19T14:05:45.122Z,57.70
2018-10-19T14:08:12.212Z,55.53
2018-10-19T14:10:39.428Z,53.80
2018-10-19T14:13:06.929Z,55.07
2018-10-19T14:15:34.137Z,51.60
2018-10-19T14:18:01.379Z,52.63
2018-10-19T14:20:28.609Z,52.97
2018-10-19T14:22:55.872Z,54.80
2018-10-19T14:25:23.053Z,57.33
2018-10-19T14:27:50.292Z,52.10
2018-10-19T14:30:18.008Z,49.37
2018-10-19T14:32:45.237Z,49.67
2018-10-19T14:35:13.330Z,51.80
2018-10-19T14:37:41.609Z,57.70
2018-10-19T14:40:10.934Z,59.10
2018-10-19T14:42:38.576Z,55.87
2018-10-19T14:45:06.395Z,53.93
2018-10-19T14:47:33.606Z,55.00
2018-10-19T14:50:00.808Z,55.23
2018-10-19T14:52:28.013Z,54.17
2018-10-19T14:54:55.216Z,50.57
2018-10-19T14:57:22.676Z,51.17
2018-10-19T14:59:49.893Z,53.60
2018-10-19T15:02:17.140Z,55.63
2018-10-19T15:04:44.345Z,53.97
2018-10-19T15:07:11.709Z,53.97
2018-10-19T15:09:39.101Z,49.50
2018-10-19T15:12:06.415Z,55.20
2018-10-19T15:14:34.543Z,55.57
2018-10-19T15:17:01.782Z,50.43
2018-10-19T15:19:29.014Z,54.53
2018-10-19T15:21:56.233Z,54.33
2018-10-19T15:24:23.490Z,48.90
2018-10-19T15:26:50.709Z,48.10
2018-10-19T15:29:17.986Z,52.40
2018-10-19T15:31:45.132Z,48.83
2018-10-19T15:34:12.427Z,49.40
2018-10-19T15:36:39.725Z,45.20
2018-10-19T15:39:09.330Z,51.10
2018-10-19T15:41:36.553Z,46.80
2018-10-19T15:44:04.118Z,56.43
2018-10-19T15:46:31.573Z,48.70
2018-10-19T15:48:58.771Z,49.63
2018-10-19T15:51:25.985Z,53.57
2018-10-19T15:53:54.238Z,50.33
2018-10-19T15:56:21.453Z,49.20
2018-10-19T15:58:49.823Z,57.73
2018-10-19T16:01:17.056Z,52.43
2018-10-19T16:03:44.305Z,53.20
2018-10-19T16:06:11.597Z,54.07
2018-10-19T16:08:38.861Z,58.20
2018-10-19T16:11:06.198Z,55.10
2018-10-19T16:13:33.381Z,56.23
2018-10-19T16:16:00.636Z,55.73
2018-10-19T16:18:27.872Z,53.83
2018-10-19T16:20:55.104Z,58.90
2018-10-19T16:23:22.317Z,60.60
2018-10-19T16:25:49.538Z,60.10
2018-10-19T16:28:16.812Z,59.90
2018-10-19T16:30:43.980Z,61.20
2018-10-19T16:33:11.296Z,58.77
2018-10-19T16:35:38.417Z,54.83
2018-10-19T16:38:05.645Z,52.53
2018-10-19T16:40:33.417Z,52.80
2018-10-19T16:43:00.641Z,61.40
2018-10-19T16:45:27.868Z,58.70
2018-10-19T16:47:55.106Z,57.33
2018-10-19T16:50:22.313Z,60.60
2018-10-19T16:52:49.561Z,68.90
2018-10-19T16:55:17.777Z,69.47
2018-10-19T16:57:44.992Z,74.70
2018-10-19T17:00:12.287Z,73.03
2018-10-19T17:02:39.441Z,76.47
2018-10-19T17:05:06.900Z,70.47
2018-10-19T17:07:34.116Z,68.80
2018-10-19T17:10:01.349Z,65.40
2018-10-19T17:12:28.585Z,59.30
2018-10-19T17:14:55.859Z,66.53
2018-10-19T17:17:23.041Z,70.90
2018-10-19T17:19:50.284Z,72.20
2018-10-19T17:22:17.545Z,73.23
2018-10-19T17:24:44.764Z,78.47
2018-10-19T17:27:12.021Z,78.77
2018-10-19T17:29:39.251Z,80.50
2018-10-19T17:32:06.528Z,77.90
2018-10-19T17:34:33.768Z,90.53
2018-10-19T17:37:01.018Z,79.20
2018-10-19T17:39:28.238Z,90.53
2018-10-19T17:41:55.486Z,86.40
2018-10-19T17:44:22.672Z,88.80
2018-10-19T17:46:49.947Z,87.93
2018-10-19T17:49:17.289Z,93.80
2018-10-19T17:51:44.393Z,94.80
2018-10-19T17:54:11.756Z,86.17
2018-10-19T17:56:38.873Z,100.77
2018-10-19T17:59:06.120Z,86.60
2018-10-19T18:01:33.504Z,88.17
2018-10-19T18:04:00.847Z,95.00
2018-10-19T18:06:28.071Z,96.43
2018-10-19T18:08:55.376Z,90.83
2018-10-19T18:11:22.596Z,96.50
2018-10-19T18:13:49.812Z,93.43
2018-10-19T18:16:17.045Z,99.63
2018-10-19T18:18:44.265Z,103.83
2018-10-19T18:21:11.592Z,109.50
2018-10-19T18:23:38.803Z,103.63
2018-10-19T18:26:06.163Z,117.83
2018-10-19T18:28:33.461Z,95.70
2018-10-19T18:31:00.774Z,113.50
2018-10-19T18:33:27.960Z,127.70
2018-10-19T18:35:55.191Z,121.87
2018-10-19T18:38:23.497Z,101.23
2018-10-19T18:40:50.741Z,101.90
2018-10-19T18:43:17.962Z,117.10
2018-10-19T18:45:45.193Z,98.87
2018-10-19T18:48:12.424Z,103.23
2018-10-19T18:50:39.693Z,114.47
2018-10-19T18:53:07.022Z,118.83
2018-10-19T18:55:34.883Z,120.08
2018-10-19T18:58:02.130Z,125.67
2018-10-19T19:00:29.368Z,125.95
2018-10-19T19:02:56.596Z,131.87
2018-10-19T19:05:23.824Z,135.27
2018-10-19T19:07:52.082Z,143.47
2018-10-19T19:10:19.617Z,140.77
2018-10-19T19:12:46.970Z,151.03
2018-10-19T19:15:14.184Z,148.17
2018-10-19T19:17:41.397Z,160.20
2018-10-19T19:20:14.664Z,162.57
2018-10-19T19:22:42.245Z,142.27
2018-10-19T19:25:16.333Z,148.40
2018-10-19T19:27:43.587Z,134.23
2018-10-19T19:30:10.859Z,183.57
2018-10-19T19:32:42.668Z,163.47
2018-10-19T19:35:10.001Z,143.50
2018-10-19T19:37:37.162Z,144.83
2018-10-19T19:40:04.984Z,157.80
2018-10-19T19:42:38.176Z,161.67
2018-10-19T19:45:05.692Z,112.90
2018-10-19T19:47:38.755Z,95.67
2018-10-19T19:50:06.104Z,95.27
2018-10-19T19:52:33.492Z,104.73
2018-10-19T19:55:00.700Z,135.73
2018-10-19T19:57:27.920Z,145.07
2018-10-19T19:59:55.148Z,184.83
2018-10-19T20:02:22.475Z,203.53
2018-10-19T20:04:49.908Z,162.93
2018-10-19T20:07:17.142Z,122.50
2018-10-19T20:09:44.516Z,142.37
2018-10-19T20:12:11.740Z,155.40
2018-10-19T20:14:38.965Z,148.73
2018-10-19T20:17:06.194Z,175.62
2018-10-19T20:19:34.448Z,180.27
2018-10-19T20:22:01.700Z,180.43
2018-10-19T20:24:28.904Z,184.30
2018-10-19T20:26:56.135Z,189.62
2018-10-19T20:29:23.359Z,179.93
2018-10-19T20:31:50.596Z,164.47
2018-10-19T20:34:17.832Z,195.90
2018-10-19T20:36:45.058Z,192.57
2018-10-19T20:39:12.473Z,192.43
2018-10-19T20:41:39.798Z,186.30
2018-10-19T20:44:07.243Z,198.27
2018-10-19T20:46:34.412Z,198.27
2018-10-19T20:49:01.850Z,219.00
2018-10-19T20:51:29.084Z,209.40
2018-10-19T20:53:56.317Z,196.97
2018-10-19T20:56:23.541Z,225.00
2018-10-19T20:58:50.768Z,222.02
2018-10-19T21:01:17.980Z,195.33
2018-10-19T21:03:45.185Z,209.17
2018-10-19T21:06:12.415Z,217.87
2018-10-19T21:08:39.637Z,219.10
2018-10-19T21:11:06.980Z,194.40
2018-10-19T21:13:34.189Z,187.37
2018-10-19T21:16:01.342Z,173.60
2018-10-19T21:18:28.563Z,188.35
2018-10-19T21:20:55.788Z,217.13
2018-10-19T21:23:23.012Z,211.93
2018-10-19T21:25:50.228Z,210.07
2018-10-19T21:28:17.462Z,229.33
2018-10-19T21:30:44.677Z,223.78
2018-10-19T21:33:11.899Z,209.20
2018-10-19T21:35:39.155Z,201.52
2018-10-19T21:38:06.394Z,210.90
2018-10-19T21:40:33.642Z,218.10
2018-10-19T21:43:00.862Z,228.05
2018-10-19T21:45:28.093Z,212.95
2018-10-19T21:47:55.300Z,228.03
2018-10-19T21:50:22.902Z,216.67
2018-10-19T21:52:51.276Z,217.70
2018-10-19T21:55:18.485Z,195.00
2018-10-19T21:57:46.064Z,207.87
2018-10-19T22:00:13.301Z,192.13
2018-10-19T22:02:40.593Z,175.33
2018-10-19T22:05:08.466Z,175.80
2018-10-19T22:07:35.654Z,160.50
2018-10-19T22:10:02.905Z,140.37
2018-10-19T22:12:30.116Z,157.53
2018-10-19T22:14:57.324Z,137.77
2018-10-19T22:17:24.555Z,137.33
2018-10-19T22:19:51.780Z,153.40
2018-10-19T22:22:18.991Z,149.90
2018-10-19T22:24:46.266Z,145.60
2018-10-19T22:27:13.528Z,150.03
2018-10-19T22:29:40.748Z,152.65
2018-10-19T22:32:07.969Z,154.37
2018-10-19T22:34:35.173Z,147.73
2018-10-19T22:37:02.503Z,148.10
2018-10-19T22:39:29.692Z,160.15
2018-10-19T22:41:56.915Z,175.20
2018-10-19T22:44:24.140Z,151.43
2018-10-19T22:46:51.373Z,165.82
2018-10-19T22:49:18.580Z,153.30
2018-10-19T22:51:45.809Z,150.70
2018-10-19T22:54:13.026Z,163.57
2018-10-19T22:56:40.293Z,146.67
2018-10-19T22:59:07.531Z,145.37
2018-10-19T23:01:34.786Z,154.67
2018-10-19T23:04:02.061Z,143.90
2018-10-19T23:06:29.555Z,144.07
2018-10-19T23:08:57.246Z,135.20
2018-10-19T23:11:24.582Z,142.40
2018-10-19T23:13:51.856Z,140.87
2018-10-19T23:16:19.212Z,151.23
2018-10-19T23:18:46.525Z,141.60
2018-10-19T23:21:14.622Z,156.82
2018-10-19T23:23:41.901Z,154.27
2018-10-19T23:26:09.605Z,158.35
2018-10-19T23:28:36.848Z,147.53
2018-10-19T23:31:04.320Z,154.17
2018-10-19T23:33:31.669Z,143.17
2018-10-19T23:35:58.916Z,149.30
2018-10-19T23:38:26.718Z,142.07
2018-10-19T23:40:54.060Z,125.12
2018-10-19T23:43:21.288Z,131.65
2018-10-19T23:45:48.996Z,137.80
2018-10-19T23:48:18.435Z,128.27
2018-10-19T23:50:46.950Z,155.67
2018-10-19T23:53:14.242Z,139.68
2018-10-19T23:55:41.453Z,147.17
2018-10-19T23:58:08.825Z,158.52
